KNPA/NPA METAR and TAF weather

Enter ICAO airport designator
Station Type Date Time Source
KNPA METAR 2020/06/03 20:56 UTC NOAA

KNPA 032056Z 18006KT 10SM SCT023 SCT070 BKN150 BKN250 29/22 A2996 RMK SLP148 T2 SET T02890222 56022


Station Type Date Time Source
KNPA Decoded METAR 2020/06/03 20:56 UTC NOAA

Pensacola, Naval Air Station, FL, United States (KNPA) 30-21-22N 087-19-24W 10M
Jun 03, 2020 - 04:56 PM EDT / 2020.06.03 2056 UTC
Wind: from the S (180 degrees) at 7 MPH (6 KT):0
Visibility: 10 mile(s):0
Sky conditions: mostly cloudy
Temperature: 84.0 F (28.9 C)
Dew Point: 72.0 F (22.2 C)
Relative Humidity: 67%
Pressure (altimeter): 29.96 in. Hg (1014 hPa)
Pressure tendency: 0.06 inches (2.2 hPa) lower than three hours ago
ob: KNPA 032056Z 18006KT 10SM SCT023 SCT070 BKN150 BKN250 29/22 A2996 RMK SLP148 T2 SET T02890222 56022
cycle: 21

Station Type Date Time Source
KNPA TAF 2020/06/03 15:12 UTC NOAA

TAF KNPA 0315/0415 12008KT 9999 VCTS SCT015CB BKN040 BKN250 QNH3005INS
TEMPO 0315/0319 VRB15G25KT 6000 TSRA BKN015CB
FM031900 16008KT 9999 VCTS SCT025CB BKN060 BKN250 QNH2994INS
TEMPO 0319/0400 BKN025CB
FM040000 VRB05KT 9999 VCSH SCT025 BKN060 BKN250 QNH2992INS
FM040900 VRB05KT 9999 VCSH BKN020 OVC080 QNH2992INS T31/0320Z T24/0412Z FN20033

Example: see airport list